createdAt,value
2019-02-22T00:08:11.104Z,88.65
2019-02-22T00:10:41.037Z,89.44
2019-02-22T00:13:10.930Z,89.27
2019-02-22T00:15:41.107Z,89.16
2019-02-22T00:18:11.091Z,88.64
2019-02-22T00:24:32.882Z,89.32
2019-02-22T00:27:02.794Z,90.45
2019-02-22T00:29:32.754Z,91.41
2019-02-22T00:35:53.831Z,92.58
2019-02-22T00:38:23.733Z,91.14
2019-02-22T00:53:37.869Z,89.11
2019-02-22T00:56:08.006Z,89.71
2019-02-22T00:58:37.896Z,90.18
2019-02-22T01:01:07.851Z,90.03
2019-02-22T01:03:37.837Z,90.09
2019-02-22T01:06:07.728Z,90.56
2019-02-22T01:08:37.617Z,92.01
2019-02-22T01:11:08.013Z,94.11
2019-02-22T01:13:37.960Z,95.75
2019-02-22T01:16:07.844Z,96.19
2019-02-22T01:18:37.791Z,94.42
2019-02-22T01:21:07.684Z,93.21
2019-02-22T01:23:37.578Z,92.99
2019-02-22T01:37:28.712Z,91.95
2019-02-22T02:06:16.991Z,90.66
2019-02-22T02:08:46.926Z,90.78
2019-02-22T02:11:16.842Z,90.38
2019-02-22T02:13:46.764Z,90.48
2019-02-22T02:16:16.724Z,90.24
2019-02-22T02:18:46.627Z,89.89
2019-02-22T02:21:16.609Z,89.75
2019-02-22T02:23:46.510Z,89.22
2019-02-22T02:26:16.415Z,88.98
2019-02-22T02:28:46.333Z,89.13
2019-02-22T02:35:00.979Z,89.30
2019-02-22T02:37:31.202Z,89.95
2019-02-22T02:40:01.150Z,91.21
2019-02-22T02:42:31.139Z,91.51
2019-02-22T02:45:01.065Z,91.43
2019-02-22T02:47:31.228Z,91.26
2019-02-22T02:50:01.122Z,91.20
2019-02-22T02:52:31.002Z,91.23
2019-02-22T02:55:00.963Z,90.92
2019-02-22T02:57:30.915Z,88.90
2019-02-22T03:00:00.839Z,88.58
2019-02-22T03:02:31.631Z,87.89
2019-02-22T03:05:01.518Z,87.94
2019-02-22T03:07:45.147Z,88.24
2019-02-22T03:10:15.119Z,90.16
2019-02-22T03:12:45.026Z,89.96
2019-02-22T03:19:13.428Z,92.05
2019-02-22T03:51:20.979Z,92.57
2019-02-22T04:08:47.336Z,92.96
2019-02-22T04:11:17.289Z,93.91
2019-02-22T04:13:47.261Z,93.77
2019-02-22T04:16:17.153Z,94.33
2019-02-22T04:22:37.952Z,95.25
2019-02-22T04:25:07.963Z,95.71
2019-02-22T05:14:20.882Z,100.00
2019-02-22T05:16:50.791Z,100.00
2019-02-22T05:19:20.699Z,100.00
2019-02-22T05:21:50.640Z,100.00
2019-02-22T05:24:20.551Z,100.00
2019-02-22T05:26:50.464Z,100.00
2019-02-22T05:29:20.365Z,100.00
2019-02-22T05:31:50.510Z,100.00
2019-02-22T05:34:20.424Z,100.00
2019-02-22T05:40:40.936Z,100.00
2019-02-22T05:43:10.867Z,100.00
2019-02-22T05:45:40.767Z,100.00
2019-02-22T05:48:10.872Z,100.00
2019-02-22T05:50:40.804Z,100.00
2019-02-22T05:53:10.746Z,100.00
2019-02-22T05:55:40.645Z,100.00
2019-02-22T05:58:10.545Z,100.00
2019-02-22T06:00:40.477Z,100.00
2019-02-22T06:03:10.364Z,100.00
2019-02-22T06:26:34.673Z,100.00
2019-02-22T06:29:04.817Z,100.00
2019-02-22T06:38:17.396Z,100.00
2019-02-22T06:40:48.267Z,100.00
2019-02-22T06:50:47.169Z,100.00
2019-02-22T06:53:17.074Z,100.00
2019-02-22T07:02:16.735Z,100.00
2019-02-22T07:19:42.051Z,100.00
2019-02-22T07:22:12.285Z,100.00
2019-02-22T07:24:42.194Z,100.00
2019-02-22T07:27:12.361Z,100.00
2019-02-22T07:29:42.250Z,100.00
2019-02-22T07:32:12.423Z,100.00
2019-02-22T07:34:42.322Z,100.00
2019-02-22T07:37:12.297Z,100.00
2019-02-22T07:39:42.220Z,100.00
2019-02-22T07:42:12.408Z,100.00
2019-02-22T07:44:42.327Z,100.00
2019-02-22T07:47:12.321Z,100.00
2019-02-22T07:49:42.242Z,100.00
2019-02-22T07:52:12.232Z,100.00
2019-02-22T07:54:42.851Z,100.00
2019-02-22T07:57:12.948Z,100.00
2019-02-22T07:59:43.089Z,100.00
2019-02-22T08:02:13.066Z,100.00
2019-02-22T08:04:42.970Z,100.00
2019-02-22T08:07:12.883Z,100.00
2019-02-22T08:09:42.784Z,100.00
2019-02-22T08:12:12.690Z,100.00
2019-02-22T08:41:19.608Z,100.00
2019-02-22T09:10:06.471Z,100.00
2019-02-22T09:12:37.226Z,99.64
2019-02-22T09:22:23.188Z,100.00
2019-02-22T09:24:51.954Z,100.00
2019-02-22T09:34:41.791Z,98.43
2019-02-22T09:37:11.713Z,97.17
2019-02-22T09:39:41.589Z,97.63
2019-02-22T09:42:11.505Z,98.58
2019-02-22T09:44:41.434Z,98.76
2019-02-22T09:47:11.369Z,99.88
2019-02-22T09:49:41.391Z,99.18
2019-02-22T09:52:11.317Z,99.13
2019-02-22T09:54:41.310Z,100.00
2019-02-22T09:57:11.323Z,100.00
2019-02-22T09:59:41.722Z,100.00
2019-02-22T10:02:11.637Z,95.14
2019-02-22T10:04:41.573Z,96.35
2019-02-22T10:11:01.935Z,91.55
2019-02-22T10:13:31.842Z,88.63
2019-02-22T10:16:01.991Z,85.83
2019-02-22T10:22:22.440Z,84.91
2019-02-22T10:24:52.384Z,88.24
2019-02-22T10:27:22.353Z,90.00
2019-02-22T10:29:52.271Z,85.50
2019-02-22T10:32:22.198Z,86.75
2019-02-22T10:38:42.961Z,82.89
2019-02-22T10:41:12.855Z,78.46
2019-02-22T10:47:41.129Z,83.77
2019-02-22T10:50:11.682Z,88.62
2019-02-22T10:52:41.660Z,87.57
2019-02-22T10:55:12.408Z,89.38
2019-02-22T10:57:42.308Z,88.95
2019-02-22T11:00:13.039Z,88.04
2019-02-22T11:02:43.007Z,86.70
2019-02-22T11:16:42.789Z,77.92
2019-02-22T11:19:12.797Z,76.61
2019-02-22T11:29:14.037Z,71.08
2019-02-22T11:31:44.044Z,72.21
2019-02-22T11:41:52.477Z,72.52
2019-02-22T11:44:22.386Z,72.50
2019-02-22T11:46:52.293Z,71.18
2019-02-22T11:52:36.812Z,72.46
2019-02-22T11:55:07.848Z,71.88
2019-02-22T11:57:38.111Z,70.39
2019-02-22T12:00:11.296Z,68.59
2019-02-22T12:02:41.317Z,69.59
2019-02-22T12:05:11.484Z,67.80
2019-02-22T12:07:41.374Z,65.65
2019-02-22T12:10:11.428Z,63.98
2019-02-22T12:12:41.394Z,60.30
2019-02-22T12:15:11.558Z,56.88
2019-02-22T12:17:41.709Z,58.48
2019-02-22T12:20:11.689Z,57.09
2019-02-22T12:22:41.567Z,57.44
2019-02-22T12:25:11.572Z,56.50
2019-02-22T12:27:42.080Z,59.03
2019-02-22T12:30:13.506Z,58.88
2019-02-22T12:32:43.425Z,59.11
2019-02-22T12:35:13.479Z,58.34
2019-02-22T12:37:43.379Z,58.00
2019-02-22T12:40:13.686Z,58.84
2019-02-22T12:42:43.648Z,59.46
2019-02-22T12:45:13.626Z,59.70
2019-02-22T12:47:43.504Z,59.36
2019-02-22T12:50:13.845Z,59.80
2019-02-22T12:52:43.740Z,61.89
2019-02-22T12:55:13.956Z,63.46
2019-02-22T12:57:43.860Z,63.92
2019-02-22T13:00:14.257Z,65.45
2019-02-22T13:02:44.223Z,64.99
2019-02-22T13:05:16.006Z,64.54
2019-02-22T13:07:45.976Z,65.76
2019-02-22T13:10:16.024Z,65.64
2019-02-22T13:16:37.201Z,65.51
2019-02-22T13:19:07.095Z,62.82
2019-02-22T13:21:37.026Z,61.31
2019-02-22T13:24:06.938Z,59.52
2019-02-22T13:26:36.832Z,59.41
2019-02-22T13:29:07.067Z,58.17
2019-02-22T13:31:37.029Z,58.32
2019-02-22T13:34:07.067Z,57.95
2019-02-22T13:40:22.261Z,60.77
2019-02-22T13:43:11.536Z,58.50
2019-02-22T14:03:00.607Z,54.57
2019-02-22T14:27:19.480Z,60.84
2019-02-22T14:29:49.405Z,60.60
2019-02-22T14:32:19.318Z,59.14
2019-02-22T14:34:49.255Z,59.54
2019-02-22T14:37:19.499Z,58.38
2019-02-22T14:40:00.120Z,57.28
2019-02-22T14:42:21.259Z,56.58
2019-02-22T14:44:51.579Z,55.40
2019-02-22T14:47:21.549Z,53.90
2019-02-22T14:49:51.968Z,52.88
2019-02-22T14:52:21.855Z,52.45
2019-02-22T14:54:51.758Z,52.58
2019-02-22T14:57:21.730Z,51.30
2019-02-22T14:59:51.677Z,51.58
2019-02-22T15:02:22.325Z,52.68
2019-02-22T15:04:52.336Z,52.74
2019-02-22T15:07:22.300Z,54.19
2019-02-22T15:09:52.212Z,55.35
2019-02-22T15:12:22.954Z,55.71
2019-02-22T15:14:52.904Z,56.56
2019-02-22T15:21:07.415Z,57.19
2019-02-22T15:23:38.767Z,58.57
2019-02-22T15:26:08.789Z,58.16
2019-02-22T15:28:38.945Z,57.90
2019-02-22T15:31:09.022Z,58.49
2019-02-22T15:33:38.964Z,59.19
2019-02-22T15:40:00.303Z,59.44
2019-02-22T15:42:30.705Z,58.86
2019-02-22T15:52:20.873Z,57.39
2019-02-22T15:54:50.734Z,57.58
2019-02-22T16:04:46.942Z,58.32
2019-02-22T16:07:16.988Z,58.46
2019-02-22T16:09:46.925Z,58.88
2019-02-22T16:12:17.245Z,59.37
2019-02-22T16:14:47.514Z,60.31
2019-02-22T16:21:08.302Z,60.66
2019-02-22T16:45:10.474Z,66.99
2019-02-22T16:47:40.819Z,69.18
2019-02-22T16:50:12.170Z,70.06
2019-02-22T16:56:26.997Z,72.02
2019-02-22T17:06:28.109Z,77.35
2019-02-22T17:08:58.048Z,75.11
2019-02-22T17:11:27.972Z,75.75
2019-02-22T17:17:43.160Z,79.98
2019-02-22T17:20:13.302Z,81.37
2019-02-22T17:22:43.350Z,81.34
2019-02-22T17:25:15.257Z,82.02
2019-02-22T17:27:45.997Z,83.01
2019-02-22T17:30:16.061Z,83.96
2019-02-22T17:36:36.925Z,86.10
2019-02-22T17:39:08.891Z,86.75
2019-02-22T17:41:38.860Z,87.10
2019-02-22T17:47:53.602Z,88.12
2019-02-22T17:50:23.663Z,83.83
2019-02-22T17:52:54.154Z,83.23
2019-02-22T17:59:14.791Z,83.57
2019-02-22T18:18:35.772Z,83.94
2019-02-22T18:28:08.137Z,84.70
2019-02-22T18:37:57.543Z,86.37
2019-02-22T18:40:27.682Z,86.89
2019-02-22T18:42:57.633Z,86.98
2019-02-22T18:45:28.219Z,86.34
2019-02-22T18:47:58.192Z,87.60
2019-02-22T18:50:28.083Z,88.64
2019-02-22T18:52:57.992Z,88.40
2019-02-22T18:55:27.888Z,87.78
2019-02-22T19:01:49.410Z,89.30
2019-02-22T19:11:32.631Z,93.59
2019-02-22T19:14:02.528Z,93.08
2019-02-22T19:16:32.632Z,90.86
2019-02-22T19:22:54.260Z,90.07
2019-02-22T19:25:24.397Z,92.63
2019-02-22T19:27:55.017Z,94.00
2019-02-22T19:30:25.018Z,95.27
2019-02-22T19:32:54.973Z,96.80
2019-02-22T19:46:52.003Z,99.52
2019-02-22T19:56:40.598Z,99.68
2019-02-22T19:59:10.499Z,99.87
2019-02-22T20:01:40.412Z,100.00
2019-02-22T21:06:52.855Z,100.00
2019-02-22T21:09:23.361Z,100.00
2019-02-22T21:11:53.296Z,100.00
2019-02-22T21:25:51.452Z,100.00
2019-02-22T21:28:21.455Z,100.00
2019-02-22T21:30:51.413Z,100.00
2019-02-22T21:33:21.312Z,100.00
2019-02-22T21:35:51.229Z,100.00
2019-02-22T21:38:21.184Z,100.00
2019-02-22T21:40:51.084Z,100.00
2019-02-22T21:43:21.074Z,100.00
2019-02-22T21:45:51.041Z,100.00
2019-02-22T23:43:08.091Z,100.00
2019-02-22T23:52:57.903Z,100.00
2019-02-22T23:55:27.883Z,100.00
